Time;durP1;ratioP1;P1;durP2;ratioP2;P2;SDS_P1;SDS_P2;PMS_P1;PMS_P2;Temp;Humidity;BMP_temperature;BMP_pressure;BME280_temperature;BME280_humidity;BME280_pressure;Samples;Min_cycle;Max_cycle;Signal;HPM_P1;HPM_P2
2022/01/06 00:01:38;;;;;;;17.52;2.13;;;;;;;;;;5026868;28;20036;-86
2022/01/06 00:04:04;;;;;;;16.88;2.67;;;;;;;;;;5027107;28;20033;-85
2022/01/06 00:06:32;;;;;;;21.20;2.40;;;;;;;;;;5025470;28;20093;-85
2022/01/06 00:09:00;;;;;;;24.42;2.65;;;;;;;;;;5026384;28;20457;-87
2022/01/06 00:11:26;;;;;;;15.55;2.03;;;;;;;;;;5027684;28;20052;-84
2022/01/06 00:14:12;;;;;;;17.23;1.70;;;;;;;;;;5030184;28;20048;-85
2022/01/06 00:16:58;;;;;;;16.75;1.95;;;;;;;;;;5021907;28;20516;-87
2022/01/06 00:24:54;;;;;;;16.40;2.38;;;;;;;;;;5024297;28;20119;-85
2022/01/06 00:27:20;;;;;;;14.90;2.00;;;;;;;;;;5019883;28;20069;-87
2022/01/06 00:29:46;;;;;;;13.07;2.38;;;;;;;;;;5017167;28;20125;-88
2022/01/06 00:32:12;;;;;;;20.95;2.55;;;;;;;;;;5026080;28;20045;-87
2022/01/06 00:34:38;;;;;;;16.67;3.03;;;;;;;;;;5021404;28;20041;-85
2022/01/06 00:37:05;;;;;;;22.60;2.50;;;;;;;;;;5023014;28;20050;-87
2022/01/06 00:39:31;;;;;;;24.92;2.78;;;;;;;;;;5005703;28;20068;-86
2022/01/06 00:41:59;;;;;;;23.05;3.45;;;;;;;;;;5008774;28;20068;-88
2022/01/06 00:44:28;;;;;;;19.08;2.35;;;;;;;;;;5026445;28;20204;-84
2022/01/06 00:46:54;;;;;;;22.35;2.47;;;;;;;;;;5025769;28;20037;-84
2022/01/06 00:49:20;;;;;;;19.08;2.58;;;;;;;;;;5024507;28;20045;-86
2022/01/06 00:51:47;;;;;;;15.90;2.20;;;;;;;;;;5008192;28;20049;-85
2022/01/06 00:54:13;;;;;;;28.63;2.63;;;;;;;;;;5026870;28;20081;-84
2022/01/06 00:56:39;;;;;;;14.45;2.30;;;;;;;;;;5024570;28;20041;-85
2022/01/06 00:59:05;;;;;;;18.85;2.55;;;;;;;;;;5008978;28;20444;-89
2022/01/06 01:01:32;;;;;;;14.48;1.35;;;;;;;;;;5025477;28;20040;-86
2022/01/06 01:03:58;;;;;;;9.40;3.08;;;;;;;;;;5023984;28;20123;-86
2022/01/06 01:06:24;;;;;;;8.40;1.40;;;;;;;;;;5010212;28;20050;-87
2022/01/06 01:08:50;;;;;;;12.40;1.85;;;;;;;;;;5023827;28;20564;-86
2022/01/06 01:11:17;;;;;;;12.60;1.30;;;;;;;;;;5026013;28;20482;-84
2022/01/06 01:13:54;;;;;;;14.00;1.70;;;;;;;;;;4997087;28;20049;-86
2022/01/06 01:16:25;;;;;;;6.13;1.20;;;;;;;;;;5023772;28;20037;-87
2022/01/06 01:18:51;;;;;;;9.95;1.48;;;;;;;;;;5025035;28;20041;-85
2022/01/06 01:21:22;;;;;;;14.20;1.58;;;;;;;;;;5007457;28;20095;-86
2022/01/06 01:23:48;;;;;;;12.23;2.42;;;;;;;;;;5007661;28;20064;-87
2022/01/06 01:26:14;;;;;;;16.25;2.65;;;;;;;;;;5007796;28;20049;-85
2022/01/06 01:28:45;;;;;;;23.00;3.38;;;;;;;;;;4995313;28;20049;-83
2022/01/06 01:33:44;;;;;;;16.33;2.42;;;;;;;;;;5035009;28;20065;-85
2022/01/06 01:36:10;;;;;;;21.45;1.92;;;;;;;;;;5022470;28;20037;-85
2022/01/06 01:38:37;;;;;;;14.88;2.08;;;;;;;;;;5023445;28;20052;-85
2022/01/06 01:41:07;;;;;;;15.13;1.95;;;;;;;;;;5007399;28;20144;-84
2022/01/06 01:43:33;;;;;;;19.48;3.85;;;;;;;;;;5024491;28;20041;-84
2022/01/06 01:46:08;;;;;;;12.70;1.50;;;;;;;;;;5023552;28;20037;-84
2022/01/06 01:48:37;;;;;;;9.73;1.50;;;;;;;;;;5024504;28;20049;-86
2022/01/06 01:51:04;;;;;;;10.82;1.83;;;;;;;;;;5025910;28;20092;-84
2022/01/06 01:53:33;;;;;;;11.48;1.60;;;;;;;;;;5024266;28;20037;-85
2022/01/06 01:55:59;;;;;;;15.23;1.90;;;;;;;;;;5025044;28;20045;-84
2022/01/06 01:58:25;;;;;;;6.95;1.33;;;;;;;;;;5024573;28;20567;-84
2022/01/06 02:00:51;;;;;;;10.02;1.63;;;;;;;;;;5023584;28;20045;-87
2022/01/06 02:03:18;;;;;;;8.32;1.55;;;;;;;;;;5023950;28;20045;-86
2022/01/06 02:05:44;;;;;;;15.30;1.70;;;;;;;;;;5024867;28;20527;-83
2022/01/06 02:08:11;;;;;;;15.55;1.27;;;;;;;;;;5025096;28;20088;-84
2022/01/06 02:10:37;;;;;;;14.57;2.60;;;;;;;;;;5022203;28;20094;-85
2022/01/06 02:13:04;;;;;;;12.23;1.40;;;;;;;;;;4990799;28;20061;-85
2022/01/06 02:15:30;;;;;;;7.65;1.40;;;;;;;;;;5024256;28;20109;-85
2022/01/06 02:17:56;;;;;;;10.88;1.75;;;;;;;;;;5024097;28;20091;-87
2022/01/06 02:20:23;;;;;;;12.82;1.60;;;;;;;;;;5023755;28;20061;-85
2022/01/06 02:22:49;;;;;;;12.98;2.20;;;;;;;;;;5023004;28;20060;-84
2022/01/06 02:25:15;;;;;;;9.77;1.50;;;;;;;;;;5003796;28;20046;-83
2022/01/06 02:27:42;;;;;;;9.82;1.55;;;;;;;;;;5027223;28;20132;-85
2022/01/06 02:30:09;;;;;;;8.95;1.20;;;;;;;;;;5011182;28;20041;-85
2022/01/06 02:32:36;;;;;;;9.45;1.42;;;;;;;;;;5027968;28;20026;-87
2022/01/06 02:35:06;;;;;;;15.18;1.38;;;;;;;;;;5023980;28;20048;-84
2022/01/06 02:37:33;;;;;;;9.80;1.38;;;;;;;;;;5028509;28;20037;-84
2022/01/06 02:39:59;;;;;;;7.95;1.10;;;;;;;;;;5010470;28;20126;-87
2022/01/06 02:42:26;;;;;;;9.57;1.00;;;;;;;;;;5024665;28;20067;-86
2022/01/06 02:44:53;;;;;;;11.38;1.88;;;;;;;;;;5028889;28;20056;-84
2022/01/06 02:47:19;;;;;;;7.93;1.20;;;;;;;;;;5028392;28;20098;-85
2022/01/06 02:49:45;;;;;;;5.88;1.20;;;;;;;;;;5028251;28;20431;-85
2022/01/06 02:52:11;;;;;;;13.40;1.38;;;;;;;;;;5027130;28;20049;-84
2022/01/06 02:54:43;;;;;;;4.53;1.98;;;;;;;;;;5027870;28;20164;-83
2022/01/06 02:57:10;;;;;;;7.38;0.93;;;;;;;;;;5027951;28;20041;-83
2022/01/06 02:59:36;;;;;;;5.57;1.10;;;;;;;;;;5010018;28;20056;-84
2022/01/06 03:02:02;;;;;;;7.15;1.27;;;;;;;;;;5027858;28;20056;-84
2022/01/06 03:04:28;;;;;;;8.38;1.52;;;;;;;;;;5026958;28;20092;-85
2022/01/06 03:06:54;;;;;;;12.82;1.48;;;;;;;;;;5027004;28;20049;-83
2022/01/06 03:09:25;;;;;;;9.07;1.25;;;;;;;;;;5026096;28;20429;-86
2022/01/06 03:11:54;;;;;;;10.90;1.35;;;;;;;;;;5025600;28;20049;-85
2022/01/06 03:14:20;;;;;;;10.68;1.30;;;;;;;;;;5027986;28;20041;-86
2022/01/06 03:16:46;;;;;;;9.65;1.35;;;;;;;;;;4994522;28;20041;-85
2022/01/06 03:19:12;;;;;;;7.07;1.48;;;;;;;;;;5010530;28;20042;-83
2022/01/06 03:21:38;;;;;;;10.57;1.27;;;;;;;;;;5027246;28;21001;-85
2022/01/06 03:24:05;;;;;;;10.23;0.98;;;;;;;;;;5026240;28;20049;-87
2022/01/06 03:26:31;;;;;;;8.82;1.25;;;;;;;;;;5026596;28;20046;-83
2022/01/06 03:28:57;;;;;;;10.88;1.35;;;;;;;;;;5026509;28;20037;-83
2022/01/06 03:31:23;;;;;;;9.98;1.38;;;;;;;;;;5025630;28;20543;-85
2022/01/06 03:33:49;;;;;;;2.92;1.08;;;;;;;;;;5028529;28;20052;-86
2022/01/06 03:36:15;;;;;;;6.20;1.17;;;;;;;;;;5038246;28;20039;-85
2022/01/06 03:38:41;;;;;;;7.50;0.85;;;;;;;;;;5039704;28;20041;-84
2022/01/06 03:41:07;;;;;;;9.63;1.45;;;;;;;;;;5035853;28;20166;-86
2022/01/06 03:43:34;;;;;;;6.15;1.23;;;;;;;;;;5030131;28;20080;-89
2022/01/06 03:46:01;;;;;;;6.75;1.40;;;;;;;;;;5010256;28;20088;-85
2022/01/06 03:48:27;;;;;;;14.25;1.50;;;;;;;;;;5028169;28;20128;-85
2022/01/06 03:50:53;;;;;;;10.27;1.10;;;;;;;;;;5025931;28;20045;-84
2022/01/06 03:53:19;;;;;;;10.68;1.27;;;;;;;;;;5026901;28;20515;-84
2022/01/06 03:55:45;;;;;;;8.18;1.73;;;;;;;;;;5009090;28;20424;-84
2022/01/06 03:58:11;;;;;;;10.80;1.30;;;;;;;;;;5026693;28;20034;-83
2022/01/06 04:00:38;;;;;;;9.07;1.10;;;;;;;;;;5026864;28;20033;-84
2022/01/06 04:03:04;;;;;;;11.43;1.55;;;;;;;;;;5026029;28;20124;-88
2022/01/06 04:05:33;;;;;;;15.98;1.40;;;;;;;;;;5023656;28;20075;-85
2022/01/06 04:08:00;;;;;;;11.68;1.33;;;;;;;;;;5025884;28;20041;-87
2022/01/06 04:10:26;;;;;;;5.03;1.50;;;;;;;;;;5026763;28;20100;-86
2022/01/06 04:12:52;;;;;;;9.07;1.23;;;;;;;;;;5024104;28;20065;-83
2022/01/06 04:15:19;;;;;;;14.43;1.25;;;;;;;;;;5026761;28;20047;-85
2022/01/06 04:17:45;;;;;;;11.10;1.50;;;;;;;;;;5026373;28;20044;-85
2022/01/06 04:20:12;;;;;;;14.38;1.58;;;;;;;;;;5026477;28;20041;-87
2022/01/06 04:22:38;;;;;;;15.27;2.42;;;;;;;;;;5025637;28;20159;-84
2022/01/06 04:25:05;;;;;;;13.85;2.50;;;;;;;;;;5026494;28;20491;-85
2022/01/06 04:27:31;;;;;;;13.52;1.48;;;;;;;;;;5006853;28;20088;-84
2022/01/06 04:30:00;;;;;;;16.85;1.23;;;;;;;;;;5027048;28;20216;-84
2022/01/06 04:32:26;;;;;;;20.80;3.33;;;;;;;;;;5025737;28;20037;-86
2022/01/06 04:34:52;;;;;;;13.48;2.25;;;;;;;;;;5025792;28;20503;-87
2022/01/06 04:37:18;;;;;;;12.27;1.63;;;;;;;;;;5024274;28;20037;-86
2022/01/06 04:39:44;;;;;;;17.85;2.13;;;;;;;;;;5023966;28;20045;-87
2022/01/06 04:42:10;;;;;;;21.10;3.40;;;;;;;;;;5023880;28;20087;-84
2022/01/06 04:44:37;;;;;;;20.50;2.30;;;;;;;;;;4991931;28;20046;-85
2022/01/06 04:47:03;;;;;;;13.18;2.13;;;;;;;;;;5026188;28;20065;-85
2022/01/06 04:49:29;;;;;;;13.88;2.55;;;;;;;;;;5006480;28;20389;-85
2022/01/06 04:51:55;;;;;;;20.60;2.15;;;;;;;;;;5008222;28;20048;-84
2022/01/06 04:54:22;;;;;;;21.75;2.83;;;;;;;;;;5027348;28;20042;-84
2022/01/06 04:56:48;;;;;;;21.60;2.42;;;;;;;;;;5026769;28;20461;-85
2022/01/06 04:59:20;;;;;;;13.45;2.20;;;;;;;;;;5025946;28;20045;-84
2022/01/06 05:01:46;;;;;;;23.38;3.28;;;;;;;;;;5024614;28;20083;-84
2022/01/06 05:04:12;;;;;;;29.52;2.90;;;;;;;;;;5022779;28;20049;-83
2022/01/06 05:06:38;;;;;;;21.80;2.60;;;;;;;;;;5021991;28;20088;-85
2022/01/06 05:09:04;;;;;;;25.13;3.20;;;;;;;;;;5005684;28;20053;-84
2022/01/06 05:11:30;;;;;;;19.05;2.55;;;;;;;;;;5023173;28;20045;-85
2022/01/06 05:13:56;;;;;;;20.83;2.70;;;;;;;;;;5005156;28;20881;-84
2022/01/06 05:16:23;;;;;;;19.60;2.60;;;;;;;;;;5005678;28;20099;-85
2022/01/06 05:18:49;;;;;;;31.60;3.50;;;;;;;;;;5005169;28;20152;-85
2022/01/06 05:21:15;;;;;;;20.30;3.08;;;;;;;;;;5028258;28;20053;-84
2022/01/06 05:23:41;;;;;;;19.13;3.72;;;;;;;;;;5022023;28;20061;-87
2022/01/06 05:26:08;;;;;;;29.55;3.13;;;;;;;;;;5021672;28;20077;-85
2022/01/06 05:28:34;;;;;;;18.10;2.72;;;;;;;;;;5007367;28;20557;-85
2022/01/06 05:31:01;;;;;;;22.77;3.25;;;;;;;;;;4991441;28;20055;-85
2022/01/06 05:33:30;;;;;;;30.02;2.60;;;;;;;;;;5025471;28;20045;-84
2022/01/06 05:35:56;;;;;;;19.63;2.78;;;;;;;;;;5025883;28;20396;-84
2022/01/06 05:38:22;;;;;;;19.50;2.63;;;;;;;;;;5025862;28;20053;-85
2022/01/06 05:40:48;;;;;;;24.15;3.47;;;;;;;;;;5030193;28;20041;-83
2022/01/06 05:43:14;;;;;;;28.55;4.15;;;;;;;;;;5042168;28;20042;-84
2022/01/06 05:45:41;;;;;;;20.80;2.45;;;;;;;;;;5044390;28;20033;-86
2022/01/06 05:48:07;;;;;;;19.17;3.28;;;;;;;;;;5027434;28;20037;-84
2022/01/06 05:50:33;;;;;;;20.55;2.53;;;;;;;;;;5026061;28;20784;-84
2022/01/06 05:52:59;;;;;;;18.20;2.38;;;;;;;;;;5024721;28;20045;-85
2022/01/06 05:55:25;;;;;;;19.65;2.38;;;;;;;;;;5024952;28;20037;-84
2022/01/06 05:57:51;;;;;;;13.77;2.13;;;;;;;;;;4990670;28;20034;-86
2022/01/06 06:00:18;;;;;;;24.95;3.33;;;;;;;;;;4972633;28;20046;-84
2022/01/06 06:02:44;;;;;;;12.70;2.03;;;;;;;;;;5027921;28;20493;-85
2022/01/06 06:05:10;;;;;;;12.00;3.85;;;;;;;;;;5028187;28;20064;-86
2022/01/06 06:07:36;;;;;;;24.60;2.65;;;;;;;;;;5026031;28;20038;-85
2022/01/06 06:10:02;;;;;;;25.90;3.72;;;;;;;;;;5025772;28;20591;-86
2022/01/06 06:12:28;;;;;;;24.38;2.50;;;;;;;;;;5009461;28;20087;-86
2022/01/06 06:14:54;;;;;;;19.85;3.30;;;;;;;;;;5026792;28;20038;-87
2022/01/06 06:17:21;;;;;;;22.10;2.85;;;;;;;;;;5006457;28;20053;-87
2022/01/06 06:19:47;;;;;;;20.55;2.65;;;;;;;;;;5025890;28;20128;-85
2022/01/06 06:22:13;;;;;;;20.58;2.60;;;;;;;;;;5024905;28;20064;-85
2022/01/06 06:24:39;;;;;;;22.48;2.90;;;;;;;;;;5023840;28;20126;-87
2022/01/06 06:27:06;;;;;;;22.23;2.60;;;;;;;;;;5026719;28;20037;-85
2022/01/06 06:29:32;;;;;;;27.23;2.88;;;;;;;;;;5027283;28;20109;-85
2022/01/06 06:31:58;;;;;;;38.95;3.10;;;;;;;;;;5009264;28;20049;-85
2022/01/06 06:34:24;;;;;;;22.48;2.85;;;;;;;;;;5024556;28;20043;-85
2022/01/06 06:36:50;;;;;;;33.20;3.40;;;;;;;;;;5025079;28;20034;-85
2022/01/06 06:39:16;;;;;;;33.88;3.67;;;;;;;;;;5025872;28;20132;-85
2022/01/06 06:41:43;;;;;;;19.25;2.25;;;;;;;;;;5026004;28;20072;-84
2022/01/06 06:44:09;;;;;;;15.60;3.03;;;;;;;;;;5026295;28;20603;-85
2022/01/06 06:46:35;;;;;;;24.02;3.38;;;;;;;;;;5024447;28;20895;-85
2022/01/06 06:49:01;;;;;;;23.20;2.50;;;;;;;;;;5024241;28;20490;-85
2022/01/06 06:51:27;;;;;;;20.65;2.70;;;;;;;;;;5026203;28;20077;-86
2022/01/06 06:53:53;;;;;;;25.58;4.03;;;;;;;;;;5026081;28;20041;-89
2022/01/06 06:56:19;;;;;;;25.80;3.05;;;;;;;;;;5023451;28;20052;-85
2022/01/06 06:58:45;;;;;;;26.20;2.83;;;;;;;;;;5042140;28;20061;-85
2022/01/06 07:01:11;;;;;;;21.02;3.30;;;;;;;;;;5042991;28;20037;-85
2022/01/06 07:03:37;;;;;;;22.10;2.58;;;;;;;;;;5035828;28;20045;-86
2022/01/06 07:06:03;;;;;;;18.48;3.22;;;;;;;;;;5011390;28;20148;-89
2022/01/06 07:08:29;;;;;;;31.58;3.35;;;;;;;;;;5009023;28;20081;-88
2022/01/06 07:10:55;;;;;;;28.30;2.95;;;;;;;;;;5026024;28;20041;-84
2022/01/06 07:13:21;;;;;;;22.92;2.80;;;;;;;;;;5025698;28;20512;-85
2022/01/06 07:15:48;;;;;;;21.52;2.88;;;;;;;;;;5025635;28;20060;-89
2022/01/06 07:18:14;;;;;;;29.17;3.63;;;;;;;;;;5025745;28;20049;-84
2022/01/06 07:20:41;;;;;;;20.88;3.42;;;;;;;;;;4991892;28;20053;-84
2022/01/06 07:23:07;;;;;;;21.70;3.63;;;;;;;;;;5007427;28;20093;-89
2022/01/06 07:25:34;;;;;;;26.70;3.15;;;;;;;;;;5025371;28;20053;-87
2022/01/06 07:28:00;;;;;;;25.80;4.60;;;;;;;;;;5026391;28;20045;-85
2022/01/06 07:30:31;;;;;;;30.23;3.15;;;;;;;;;;5008778;28;20136;-86
2022/01/06 07:32:57;;;;;;;26.50;3.72;;;;;;;;;;5026118;28;20038;-88
2022/01/06 07:35:23;;;;;;;27.73;3.35;;;;;;;;;;5025641;28;20087;-87
2022/01/06 07:37:50;;;;;;;25.35;3.47;;;;;;;;;;5009312;28;20046;-84
2022/01/06 07:40:24;;;;;;;25.58;3.35;;;;;;;;;;5022866;28;20041;-88
2022/01/06 07:42:50;;;;;;;28.17;3.88;;;;;;;;;;5027475;28;20056;-86
2022/01/06 07:45:17;;;;;;;15.82;3.13;;;;;;;;;;5027865;28;20491;-89
2022/01/06 07:47:55;;;;;;;32.15;3.70;;;;;;;;;;5028249;28;20184;-88
2022/01/06 07:50:21;;;;;;;51.97;6.78;;;;;;;;;;5027469;28;20120;-86
2022/01/06 07:52:48;;;;;;;21.35;3.42;;;;;;;;;;5010055;28;20116;-89
2022/01/06 07:55:14;;;;;;;27.52;3.88;;;;;;;;;;5027414;28;20497;-90
2022/01/06 07:57:40;;;;;;;17.17;2.95;;;;;;;;;;5027049;28;20444;-87
2022/01/06 08:00:06;;;;;;;24.25;2.92;;;;;;;;;;5028131;28;20147;-87
2022/01/06 08:02:32;;;;;;;19.08;2.72;;;;;;;;;;5025568;28;20685;-87
2022/01/06 08:04:58;;;;;;;26.85;2.83;;;;;;;;;;4975471;28;20065;-85
2022/01/06 08:07:25;;;;;;;29.58;3.25;;;;;;;;;;5010110;28;20038;-86
2022/01/06 08:09:51;;;;;;;25.75;4.10;;;;;;;;;;5026503;28;20053;-88
2022/01/06 08:12:17;;;;;;;17.70;2.72;;;;;;;;;;5028805;28;20124;-84
2022/01/06 08:14:43;;;;;;;26.08;3.13;;;;;;;;;;5029032;28;20045;-91
2022/01/06 08:17:09;;;;;;;32.03;3.78;;;;;;;;;;5026156;28;20034;-88
2022/01/06 08:19:35;;;;;;;16.88;2.65;;;;;;;;;;4989211;28;20025;-87
2022/01/06 08:22:01;;;;;;;27.95;3.08;;;;;;;;;;5026592;28;20049;-87
2022/01/06 08:24:31;;;;;;;20.10;2.95;;;;;;;;;;5008178;28;20052;-85
2022/01/06 08:26:58;;;;;;;24.85;3.92;;;;;;;;;;5027323;28;20042;-89
2022/01/06 08:29:24;;;;;;;16.30;2.80;;;;;;;;;;4979716;28;20515;-84
2022/01/06 08:31:50;;;;;;;31.17;4.38;;;;;;;;;;5029599;28;20128;-85
2022/01/06 08:34:16;;;;;;;19.33;2.20;;;;;;;;;;5027767;28;20041;-84
2022/01/06 08:36:43;;;;;;;28.77;3.17;;;;;;;;;;4989261;28;20432;-83
2022/01/06 08:39:09;;;;;;;24.92;3.25;;;;;;;;;;5004379;28;20041;-86
2022/01/06 08:41:35;;;;;;;26.35;2.65;;;;;;;;;;5025568;28;20037;-85
2022/01/06 08:44:01;;;;;;;24.23;3.65;;;;;;;;;;5022360;28;20060;-85
2022/01/06 08:46:27;;;;;;;32.70;3.10;;;;;;;;;;5026749;28;20033;-84
2022/01/06 08:48:53;;;;;;;14.07;2.90;;;;;;;;;;5026693;28;20150;-84
2022/01/06 08:51:20;;;;;;;28.92;4.00;;;;;;;;;;5025040;28;20049;-85
2022/01/06 08:53:46;;;;;;;18.98;4.25;;;;;;;;;;5024730;28;20091;-83
2022/01/06 08:56:12;;;;;;;19.17;2.58;;;;;;;;;;5027586;28;20045;-85
2022/01/06 08:58:38;;;;;;;20.67;2.60;;;;;;;;;;5028380;28;20110;-85
2022/01/06 09:01:04;;;;;;;18.45;2.55;;;;;;;;;;5027801;28;20045;-85
2022/01/06 09:03:30;;;;;;;33.67;3.53;;;;;;;;;;5024440;28;20234;-86
2022/01/06 09:05:59;;;;;;;24.75;3.25;;;;;;;;;;5023678;28;20037;-85
2022/01/06 09:08:25;;;;;;;19.70;3.50;;;;;;;;;;4983365;28;20520;-86
2022/01/06 09:10:51;;;;;;;24.48;2.78;;;;;;;;;;5023739;28;20060;-84
2022/01/06 09:13:17;;;;;;;19.23;3.40;;;;;;;;;;4976312;28;20125;-86
2022/01/06 09:15:43;;;;;;;37.65;4.03;;;;;;;;;;4990573;28;20045;-86
2022/01/06 09:18:09;;;;;;;31.23;3.97;;;;;;;;;;5022315;28;20080;-85
2022/01/06 09:20:35;;;;;;;26.00;3.60;;;;;;;;;;5022845;28;20413;-87
2022/01/06 09:23:03;;;;;;;20.15;3.92;;;;;;;;;;5022040;28;20124;-86
2022/01/06 09:25:29;;;;;;;23.35;4.18;;;;;;;;;;5006827;28;20175;-87
2022/01/06 09:27:58;;;;;;;29.02;3.70;;;;;;;;;;5024280;28;20225;-86
2022/01/06 09:30:25;;;;;;;22.65;3.08;;;;;;;;;;4989655;28;20464;-87
2022/01/06 09:32:53;;;;;;;24.73;3.45;;;;;;;;;;5024329;28;20092;-87
2022/01/06 09:35:20;;;;;;;28.63;3.17;;;;;;;;;;5006539;28;20558;-88
2022/01/06 09:37:46;;;;;;;16.88;3.38;;;;;;;;;;5008580;28;20041;-87
2022/01/06 09:40:12;;;;;;;25.30;3.30;;;;;;;;;;5023883;28;20498;-90
2022/01/06 09:42:40;;;;;;;21.73;3.88;;;;;;;;;;5025481;28;20052;-91
2022/01/06 09:45:06;;;;;;;21.02;3.38;;;;;;;;;;5026126;28;20037;-92
2022/01/06 09:47:33;;;;;;;23.77;3.72;;;;;;;;;;5008025;28;20034;-93
2022/01/06 09:49:59;;;;;;;24.70;3.20;;;;;;;;;;5007121;28;20045;-86
2022/01/06 09:52:25;;;;;;;22.90;3.55;;;;;;;;;;5024657;28;20025;-89
2022/01/06 09:54:51;;;;;;;26.23;3.55;;;;;;;;;;5024812;28;20168;-88
2022/01/06 09:57:17;;;;;;;28.10;3.90;;;;;;;;;;4997895;28;20638;-90
2022/01/06 09:59:44;;;;;;;24.58;3.90;;;;;;;;;;5024330;28;20045;-89
2022/01/06 10:02:16;;;;;;;38.42;4.22;;;;;;;;;;5004674;28;20554;-90
2022/01/06 10:04:43;;;;;;;24.60;3.88;;;;;;;;;;5008259;28;20045;-91
2022/01/06 10:07:10;;;;;;;20.27;3.25;;;;;;;;;;5027561;28;20072;-94
2022/01/06 10:09:37;;;;;;;27.83;3.72;;;;;;;;;;4996023;28;20052;-88
2022/01/06 10:12:10;;;;;;;27.80;4.72;;;;;;;;;;5007426;28;20127;-93
2022/01/06 10:14:43;;;;;;;21.48;3.38;;;;;;;;;;5024758;28;20054;-90
2022/01/06 10:17:10;;;;;;;25.02;3.38;;;;;;;;;;5013029;28;20033;-94
2022/01/06 10:19:43;;;;;;;44.95;6.68;;;;;;;;;;5007795;28;20096;-92
2022/01/06 10:22:18;;;;;;;23.55;4.70;;;;;;;;;;5027949;28;20065;-91
2022/01/06 10:24:46;;;;;;;22.27;3.55;;;;;;;;;;5004414;28;20042;-94
2022/01/06 10:27:13;;;;;;;22.98;3.17;;;;;;;;;;5024324;28;20137;-92
2022/01/06 10:29:44;;;;;;;20.08;2.85;;;;;;;;;;5014846;28;20092;-95
2022/01/06 10:32:14;;;;;;;14.30;3.50;;;;;;;;;;5007610;28;20033;-96
2022/01/06 10:34:41;;;;;;;34.92;3.33;;;;;;;;;;5010041;28;20419;-95
2022/01/06 10:37:39;;;;;;;31.08;7.75;;;;;;;;;;5025362;28;20044;-95
2022/01/06 10:40:09;;;;;;;26.10;3.92;;;;;;;;;;5012317;28;20072;-91
2022/01/06 10:42:36;;;;;;;21.08;3.17;;;;;;;;;;4981634;28;20390;-87
2022/01/06 10:45:09;;;;;;;19.55;3.20;;;;;;;;;;5032805;28;20771;-91
2022/01/06 10:47:40;;;;;;;24.17;3.53;;;;;;;;;;5014158;28;20138;-92
2022/01/06 10:50:09;;;;;;;20.40;3.25;;;;;;;;;;5024544;28;20045;-90
2022/01/06 10:52:36;;;;;;;21.17;3.47;;;;;;;;;;5008281;28;20494;-90
2022/01/06 10:55:29;;;;;;;20.25;3.50;;;;;;;;;;5026000;28;20042;-85
2022/01/06 10:57:55;;;;;;;22.70;3.25;;;;;;;;;;5023011;28;20489;-85
2022/01/06 11:00:25;;;;;;;19.65;3.50;;;;;;;;;;5011615;28;20800;-85
2022/01/06 11:02:51;;;;;;;18.08;3.85;;;;;;;;;;5027632;28;20072;-85
2022/01/06 11:05:17;;;;;;;28.67;3.92;;;;;;;;;;5009463;28;20038;-84
2022/01/06 11:07:43;;;;;;;25.33;4.32;;;;;;;;;;4995119;28;20057;-84
2022/01/06 11:10:19;;;;;;;17.50;3.60;;;;;;;;;;5011144;28;20045;-85
2022/01/06 11:12:46;;;;;;;19.50;3.15;;;;;;;;;;5020509;28;20049;-84
2022/01/06 11:15:12;;;;;;;20.63;3.53;;;;;;;;;;5028710;28;20041;-84
2022/01/06 11:17:38;;;;;;;13.55;3.00;;;;;;;;;;5027109;28;20445;-85
2022/01/06 11:20:05;;;;;;;20.35;3.17;;;;;;;;;;5026871;28;20038;-84
2022/01/06 11:22:31;;;;;;;14.25;3.03;;;;;;;;;;5027288;28;20150;-85
2022/01/06 11:24:59;;;;;;;28.33;4.40;;;;;;;;;;5027821;28;20077;-84
2022/01/06 11:27:32;;;;;;;22.88;3.40;;;;;;;;;;5018407;28;20041;-86
2022/01/06 11:30:07;;;;;;;22.55;3.67;;;;;;;;;;5008321;28;20058;-86
2022/01/06 11:32:33;;;;;;;17.83;2.72;;;;;;;;;;5027874;28;20045;-85
2022/01/06 11:35:04;;;;;;;19.02;3.38;;;;;;;;;;4994523;28;20037;-84
2022/01/06 11:37:43;;;;;;;19.35;3.33;;;;;;;;;;5026218;28;20051;-86
2022/01/06 11:40:10;;;;;;;16.20;3.45;;;;;;;;;;5009780;28;20049;-85
2022/01/06 11:42:36;;;;;;;17.55;3.08;;;;;;;;;;5006403;28;20854;-83
2022/01/06 11:45:05;;;;;;;18.98;3.70;;;;;;;;;;5009301;28;20573;-83
2022/01/06 11:47:31;;;;;;;17.23;3.42;;;;;;;;;;5027461;28;20038;-84
2022/01/06 11:50:07;;;;;;;21.58;3.30;;;;;;;;;;5026942;28;20049;-84
2022/01/06 11:52:33;;;;;;;23.90;3.70;;;;;;;;;;5024920;28;20057;-85
2022/01/06 11:54:59;;;;;;;24.95;4.32;;;;;;;;;;5026342;28;20045;-84
2022/01/06 11:57:37;;;;;;;17.80;3.70;;;;;;;;;;5025644;28;20499;-84
2022/01/06 12:00:18;;;;;;;16.02;2.70;;;;;;;;;;5024177;28;20057;-84
2022/01/06 12:02:56;;;;;;;18.80;3.78;;;;;;;;;;5025796;28;20053;-84
2022/01/06 12:05:22;;;;;;;29.92;3.53;;;;;;;;;;5024677;28;20041;-84
2022/01/06 12:07:52;;;;;;;20.05;3.47;;;;;;;;;;5005008;28;20474;-84
2022/01/06 12:10:20;;;;;;;18.35;3.50;;;;;;;;;;5024485;28;20133;-84
2022/01/06 12:12:48;;;;;;;20.27;3.90;;;;;;;;;;5027470;28;20041;-85
2022/01/06 12:15:15;;;;;;;22.50;4.90;;;;;;;;;;5022013;28;20046;-84
2022/01/06 12:17:45;;;;;;;12.48;3.38;;;;;;;;;;5025026;28;20433;-84
2022/01/06 12:20:12;;;;;;;29.77;4.82;;;;;;;;;;5025887;28;20033;-85
2022/01/06 12:22:38;;;;;;;21.60;3.92;;;;;;;;;;5025447;28;20053;-84
2022/01/06 12:25:05;;;;;;;19.75;3.70;;;;;;;;;;5025733;28;20045;-84
2022/01/06 12:27:32;;;;;;;29.30;4.53;;;;;;;;;;5003998;28;20061;-83
2022/01/06 12:29:58;;;;;;;25.23;5.05;;;;;;;;;;5007965;28;20500;-84
2022/01/06 12:32:24;;;;;;;21.55;3.78;;;;;;;;;;5024361;28;20049;-84
2022/01/06 12:34:54;;;;;;;25.17;4.80;;;;;;;;;;5025551;28;20390;-83
2022/01/06 12:37:29;;;;;;;19.48;3.80;;;;;;;;;;5025867;28;20087;-83
2022/01/06 12:39:55;;;;;;;19.75;3.63;;;;;;;;;;5024638;28;20037;-83
2022/01/06 12:42:22;;;;;;;21.10;3.40;;;;;;;;;;4990755;28;20103;-84
2022/01/06 12:44:48;;;;;;;20.23;3.55;;;;;;;;;;5025626;28;20057;-83
2022/01/06 12:47:14;;;;;;;26.48;4.32;;;;;;;;;;5024375;28;20037;-83
2022/01/06 12:49:40;;;;;;;26.25;4.35;;;;;;;;;;5020459;28;20053;-84
2022/01/06 12:52:07;;;;;;;19.83;3.75;;;;;;;;;;5025171;28;20107;-82
2022/01/06 12:54:34;;;;;;;15.43;4.35;;;;;;;;;;5024639;28;20124;-83
2022/01/06 12:57:06;;;;;;;21.20;3.50;;;;;;;;;;5005917;28;20045;-84
2022/01/06 12:59:36;;;;;;;20.67;3.78;;;;;;;;;;5005901;28;20107;-83
2022/01/06 13:02:12;;;;;;;20.23;3.67;;;;;;;;;;5024935;28;20467;-83
2022/01/06 13:04:45;;;;;;;19.45;3.65;;;;;;;;;;5009407;28;20050;-83
2022/01/06 13:07:13;;;;;;;20.98;4.03;;;;;;;;;;5026546;28;20144;-84
2022/01/06 13:09:40;;;;;;;24.17;4.10;;;;;;;;;;5027050;28;20030;-83
2022/01/06 13:12:11;;;;;;;23.63;4.22;;;;;;;;;;5026491;28;20052;-82
2022/01/06 13:14:38;;;;;;;20.85;3.38;;;;;;;;;;5022834;28;20080;-83
2022/01/06 13:17:07;;;;;;;16.98;3.45;;;;;;;;;;5027207;28;20041;-83
2022/01/06 13:19:34;;;;;;;18.02;3.53;;;;;;;;;;5023728;28;20085;-83
2022/01/06 13:22:04;;;;;;;21.35;3.92;;;;;;;;;;5025253;28;20123;-82
2022/01/06 13:24:32;;;;;;;15.60;4.22;;;;;;;;;;5006844;28;20053;-82
2022/01/06 13:27:01;;;;;;;29.15;5.35;;;;;;;;;;5025853;28;20041;-81
2022/01/06 13:29:27;;;;;;;26.58;4.20;;;;;;;;;;5026291;28;20115;-83
2022/01/06 13:32:01;;;;;;;16.85;3.28;;;;;;;;;;5025371;28;20073;-83
2022/01/06 13:34:27;;;;;;;23.60;4.50;;;;;;;;;;5026774;28;20129;-82
2022/01/06 13:37:22;;;;;;;22.75;4.43;;;;;;;;;;5025567;28;20064;-82
2022/01/06 13:39:49;;;;;;;24.88;3.97;;;;;;;;;;5011771;28;20528;-82
2022/01/06 13:42:29;;;;;;;19.70;3.45;;;;;;;;;;5026082;28;20041;-83
2022/01/06 13:45:00;;;;;;;15.30;3.75;;;;;;;;;;5024302;28;20921;-84
2022/01/06 13:47:36;;;;;;;23.92;3.83;;;;;;;;;;5006647;28;20038;-81
2022/01/06 13:52:51;;;;;;;20.27;3.88;;;;;;;;;;5025015;28;20046;-81
2022/01/06 13:55:20;;;;;;;22.92;4.13;;;;;;;;;;5031618;28;20033;-83
2022/01/06 13:57:47;;;;;;;22.58;4.18;;;;;;;;;;5044586;28;20037;-82
2022/01/06 14:00:15;;;;;;;24.42;4.53;;;;;;;;;;5042627;28;20064;-83
2022/01/06 14:02:41;;;;;;;25.75;3.25;;;;;;;;;;5025323;28;20049;-82
2022/01/06 14:05:08;;;;;;;22.08;3.78;;;;;;;;;;5044402;28;20042;-83
2022/01/06 14:07:34;;;;;;;20.88;3.72;;;;;;;;;;5041539;28;20041;-82
2022/01/06 14:10:02;;;;;;;19.10;2.90;;;;;;;;;;5027585;28;20055;-82
2022/01/06 14:12:28;;;;;;;21.75;3.50;;;;;;;;;;5027604;28;20040;-83
2022/01/06 14:14:54;;;;;;;20.13;3.10;;;;;;;;;;5026240;28;20121;-82
2022/01/06 14:17:21;;;;;;;19.48;3.47;;;;;;;;;;5027914;28;20085;-81
2022/01/06 14:19:47;;;;;;;21.67;3.60;;;;;;;;;;5026405;28;20080;-82
2022/01/06 14:22:13;;;;;;;26.10;4.40;;;;;;;;;;5029007;28;20056;-83
2022/01/06 14:24:39;;;;;;;18.95;2.83;;;;;;;;;;5029497;28;20097;-83
2022/01/06 14:27:05;;;;;;;18.95;2.78;;;;;;;;;;5029859;28;20560;-83
2022/01/06 14:29:31;;;;;;;13.95;3.03;;;;;;;;;;5030608;28;20034;-82
2022/01/06 14:31:58;;;;;;;17.25;3.42;;;;;;;;;;5011932;28;20034;-82
2022/01/06 14:34:24;;;;;;;20.77;3.13;;;;;;;;;;5029887;28;20052;-83
2022/01/06 14:36:51;;;;;;;13.02;3.42;;;;;;;;;;5012066;28;20175;-82
2022/01/06 14:39:18;;;;;;;18.55;3.17;;;;;;;;;;5028671;28;20052;-82
2022/01/06 14:41:44;;;;;;;18.67;2.83;;;;;;;;;;5027226;28;20064;-82
2022/01/06 14:44:10;;;;;;;16.65;3.20;;;;;;;;;;5030246;28;20041;-82